Terminal Aerodrome Forecast
Issued by NWS

Home | Current Version | Previous Version | Text Only | Print | Product List | Glossary On
Versions: 1 2 3 4 5 6 7 8 9 10 11 12 13 14
000
FTUS43 KEAX 252300
TAFSTJ
TAF
KSTJ 252333Z 2600/2624 36012G20KT 6SM -RA SCT020 BKN050
      TEMPO 2600/2604 3SM -RA BKN025
     FM260500 36008KT P6SM OVC035
     FM260900 36009KT P6SM SCT050=

USA.gov is the U.S. government's official web portal to all federal, state and local government web resources and services.